This is the latest recevied weather packets stored in our database for station/object KB9PVH-3. If no packets are shown the sender has not sent any weather packets the latest 10 day(s).
| Time | Temp. | Humidity | Pressure | Rain* | Wind** | Luminosity | Snow |
|---|---|---|---|---|---|---|---|
| 1777510945 | 5.56° C | 90% | 1017.5 hPa | 0 mm | - | - | - |
| 1777509895 | 5.56° C | 91% | 1017.4 hPa | 0 mm | - | - | - |
| 1777508845 | 5.56° C | 91% | 1017.4 hPa | 0 mm | - | - | - |
| 1777507795 | 5.56° C | 90% | 1017.2 hPa | 0 mm | - | - | - |
| 1777506746 | 6.11° C | 88% | 1017.6 hPa | 1.27 mm | - | - | - |
| 1777505695 | 7.22° C | 91% | 1017.4 hPa | 0 mm | - | - | - |
| 1777504646 | 7.22° C | 91% | 1017.3 hPa | 0 mm | - | - | - |
| 1777503598 | 7.22° C | 90% | 1017.2 hPa | 0 mm | - | - | - |
| 1777502545 | 7.22° C | 90% | 1017.2 hPa | 0 mm | - | - | - |
| 1777501496 | 7.22° C | 88% | 1017.3 hPa | 0.51 mm | - | - | - |
| 1777500446 | 7.78° C | 88% | 1017.1 hPa | 0 mm | - | - | - |
| 1777499395 | 7.22° C | 89% | 1017.3 hPa | 0.51 mm | - | - | - |
| 1777498348 | 7.22° C | 88% | 1017.2 hPa | 0 mm | - | - | - |
| 1777497294 | 7.22° C | 82% | 1017.3 hPa | 0 mm | - | - | - |
| 1777496244 | 7.22° C | 87% | 1017.4 hPa | 0 mm | - | - | - |
| 1777495194 | 6.67° C | 89% | 1017.3 hPa | 0 mm | - | - | - |
| 1777494144 | 6.67° C | 93% | 1017.5 hPa | 1.27 mm | - | - | - |
| 1777493094 | 6.11° C | 92% | 1017.3 hPa | 1.27 mm | - | - | - |
| 1777492044 | 6.67° C | 93% | 1017.4 hPa | 1.27 mm | - | - | - |
| 1777490994 | 6.67° C | 94% | 1017.4 hPa | 1.78 mm | - | - | - |
| 1777489944 | 6.67° C | 93% | 1017.1 hPa | 1.27 mm | - | - | - |
| 1777488894 | 6.67° C | 92% | 1017 hPa | 1.27 mm | - | - | - |
| 1777487844 | 6.67° C | 91% | 1017 hPa | 1.27 mm | - | - | - |
| 1777486794 | 6.67° C | 92% | 1016.9 hPa | 0.51 mm | - | - | - |
| 1777485746 | 6.67° C | 91% | 1016.9 hPa | 1.27 mm | - | - | - |
* Rain latest hour (hover to see other rain measurements)
** Current wind speed in m/s (hover to see current wind gust speed)